createdAt,value
2022-10-06T00:04:45.310Z,100.00
2022-10-06T00:09:48.662Z,100.00
2022-10-06T00:14:51.925Z,100.00
2022-10-06T00:19:55.273Z,100.00
2022-10-06T00:24:58.414Z,100.00
2022-10-06T00:30:01.592Z,100.00
2022-10-06T00:35:14.150Z,100.00
2022-10-06T00:40:17.399Z,100.00
2022-10-06T00:45:23.627Z,100.00
2022-10-06T00:50:26.813Z,100.00
2022-10-06T00:55:31.042Z,100.00
2022-10-06T01:00:44.366Z,100.00
2022-10-06T01:05:48.653Z,100.00
2022-10-06T01:10:52.112Z,100.00
2022-10-06T01:15:55.619Z,100.00
2022-10-06T01:20:59.094Z,100.00
2022-10-06T01:26:02.938Z,100.00
2022-10-06T01:31:06.450Z,100.00
2022-10-06T01:36:10.415Z,100.00
2022-10-06T01:41:13.840Z,100.00
2022-10-06T01:46:17.325Z,100.00
2022-10-06T01:51:20.943Z,100.00
2022-10-06T01:56:24.343Z,100.00
2022-10-06T02:01:27.937Z,100.00
2022-10-06T02:06:31.359Z,100.00
2022-10-06T02:11:35.237Z,100.00
2022-10-06T02:16:38.646Z,100.00
2022-10-06T02:21:42.273Z,100.00
2022-10-06T02:26:46.008Z,100.00
2022-10-06T02:31:49.763Z,100.00
2022-10-06T02:36:54.141Z,100.00
2022-10-06T02:41:57.683Z,100.00
2022-10-06T02:47:01.160Z,100.00
2022-10-06T02:52:05.337Z,100.00
2022-10-06T02:57:09.255Z,100.00
2022-10-06T03:02:13.340Z,100.00
2022-10-06T03:07:17.156Z,100.00
2022-10-06T03:12:20.526Z,100.00
2022-10-06T03:17:25.153Z,100.00
2022-10-06T03:22:28.582Z,100.00
2022-10-06T03:27:32.604Z,100.00
2022-10-06T03:32:40.311Z,100.00
2022-10-06T03:37:44.167Z,100.00
2022-10-06T03:42:48.290Z,100.00
2022-10-06T03:47:51.960Z,100.00
2022-10-06T03:52:55.646Z,100.00
2022-10-06T03:57:59.254Z,100.00
2022-10-06T04:03:02.953Z,100.00
2022-10-06T04:08:06.583Z,100.00
2022-10-06T04:13:10.524Z,100.00
2022-10-06T04:18:14.087Z,100.00
2022-10-06T04:23:17.675Z,100.00
2022-10-06T04:28:22.871Z,100.00
2022-10-06T04:33:26.536Z,100.00
2022-10-06T04:38:30.629Z,100.00
2022-10-06T04:43:34.404Z,100.00
2022-10-06T04:48:38.022Z,100.00
2022-10-06T04:53:41.717Z,100.00
2022-10-06T04:58:45.549Z,100.00
2022-10-06T05:03:49.290Z,100.00
2022-10-06T05:08:52.819Z,100.00
2022-10-06T05:13:56.427Z,100.00
2022-10-06T05:18:59.833Z,100.00
2022-10-06T05:24:03.948Z,100.00
2022-10-06T05:29:07.389Z,100.00
2022-10-06T05:34:11.200Z,100.00
2022-10-06T05:39:14.913Z,100.00
2022-10-06T05:44:18.631Z,100.00
2022-10-06T05:49:22.238Z,100.00
2022-10-06T05:54:26.095Z,100.00
2022-10-06T05:59:29.915Z,100.00
2022-10-06T06:04:33.518Z,100.00
2022-10-06T06:09:37.746Z,100.00
2022-10-06T06:14:59.143Z,100.00
2022-10-06T06:20:02.850Z,100.00
2022-10-06T06:25:06.468Z,100.00
2022-10-06T06:30:10.988Z,100.00
2022-10-06T06:35:15.228Z,100.00
2022-10-06T06:40:18.952Z,100.00
2022-10-06T06:45:22.768Z,100.00
2022-10-06T06:50:26.184Z,100.00
2022-10-06T06:55:29.973Z,100.00
2022-10-06T07:00:36.186Z,100.00
2022-10-06T07:05:40.017Z,100.00
2022-10-06T07:10:45.080Z,100.00
2022-10-06T07:16:06.789Z,100.00
2022-10-06T07:21:27.838Z,100.00
2022-10-06T07:26:32.340Z,100.00
2022-10-06T07:31:35.591Z,100.00
2022-10-06T07:36:38.812Z,100.00
2022-10-06T07:41:42.006Z,100.00
2022-10-06T07:46:45.391Z,100.00
2022-10-06T07:51:48.922Z,99.16
2022-10-06T07:56:52.176Z,98.34
2022-10-06T08:01:55.459Z,98.03
2022-10-06T08:06:58.749Z,97.04
2022-10-06T08:12:23.015Z,93.39
2022-10-06T08:17:26.385Z,93.68
2022-10-06T08:22:31.038Z,93.63
2022-10-06T08:27:35.031Z,93.30
2022-10-06T08:32:38.320Z,94.34
2022-10-06T08:37:41.653Z,92.79
2022-10-06T08:42:44.952Z,91.26
2022-10-06T08:47:50.266Z,91.16
2022-10-06T08:52:53.713Z,92.23
2022-10-06T08:57:57.049Z,92.12
2022-10-06T09:03:00.408Z,91.80
2022-10-06T09:08:03.613Z,89.69
2022-10-06T09:13:06.957Z,89.16
2022-10-06T09:18:10.842Z,90.00
2022-10-06T09:23:14.095Z,90.01
2022-10-06T09:28:17.490Z,90.28
2022-10-06T09:33:20.879Z,87.72
2022-10-06T09:38:24.335Z,89.82
2022-10-06T09:43:27.816Z,86.30
2022-10-06T09:48:30.983Z,86.67
2022-10-06T09:53:37.507Z,88.13
2022-10-06T09:58:40.935Z,87.01
2022-10-06T10:03:51.434Z,87.36
2022-10-06T10:09:06.035Z,88.54
2022-10-06T10:14:09.522Z,87.23
2022-10-06T10:19:12.834Z,87.21
2022-10-06T10:24:16.234Z,86.91
2022-10-06T10:29:19.554Z,83.71
2022-10-06T10:34:24.826Z,81.34
2022-10-06T10:39:28.540Z,80.36
2022-10-06T10:44:32.769Z,87.22
2022-10-06T10:49:36.061Z,86.95
2022-10-06T10:54:40.655Z,87.78
2022-10-06T10:59:44.267Z,86.34
2022-10-06T11:04:47.860Z,89.80
2022-10-06T11:09:51.054Z,91.27
2022-10-06T11:14:54.671Z,88.76
2022-10-06T11:19:57.890Z,84.45
2022-10-06T11:25:01.889Z,81.55
2022-10-06T11:30:05.502Z,83.16
2022-10-06T11:35:09.216Z,85.82
2022-10-06T11:40:17.398Z,91.38
2022-10-06T11:45:22.023Z,90.90
2022-10-06T11:50:25.236Z,91.30
2022-10-06T11:55:29.094Z,88.97
2022-10-06T12:00:32.809Z,86.46
2022-10-06T12:10:59.184Z,82.44
2022-10-06T12:21:25.910Z,85.25
2022-10-06T12:26:29.137Z,87.50
2022-10-06T12:31:32.322Z,91.01
2022-10-06T12:36:35.481Z,89.67
2022-10-06T12:41:38.828Z,89.13
2022-10-06T12:46:42.033Z,93.13
2022-10-06T12:51:46.144Z,96.80
2022-10-06T12:56:51.896Z,96.65
2022-10-06T13:01:55.108Z,94.13
2022-10-06T13:06:58.354Z,94.79
2022-10-06T13:12:01.526Z,88.01
2022-10-06T13:17:04.733Z,89.78
2022-10-06T13:22:08.044Z,87.81
2022-10-06T13:27:11.230Z,89.72
2022-10-06T13:32:14.467Z,92.32
2022-10-06T13:37:17.672Z,93.02
2022-10-06T13:42:22.093Z,94.93
2022-10-06T13:47:25.560Z,95.17
2022-10-06T13:52:28.963Z,92.92
2022-10-06T13:57:32.121Z,92.50
2022-10-06T14:02:36.498Z,93.81
2022-10-06T14:07:39.987Z,95.20
2022-10-06T14:12:43.262Z,95.77
2022-10-06T14:17:46.625Z,94.48
2022-10-06T14:22:49.886Z,93.25
2022-10-06T14:27:54.832Z,93.71
2022-10-06T14:32:58.112Z,91.95
2022-10-06T14:38:01.663Z,93.40
2022-10-06T14:43:05.014Z,94.90
2022-10-06T14:48:08.378Z,95.76
2022-10-06T14:53:12.827Z,95.67
2022-10-06T14:58:16.572Z,98.71
2022-10-06T15:03:20.076Z,98.20
2022-10-06T15:08:23.892Z,98.12
2022-10-06T15:13:27.095Z,99.41
2022-10-06T15:18:30.370Z,100.00
2022-10-06T15:23:33.705Z,100.00
2022-10-06T15:28:54.427Z,100.00
2022-10-06T15:33:57.683Z,100.00
2022-10-06T15:39:00.949Z,100.00
2022-10-06T15:44:04.412Z,100.00
2022-10-06T15:49:07.584Z,100.00
2022-10-06T15:54:10.897Z,100.00
2022-10-06T15:59:14.280Z,100.00
2022-10-06T16:04:25.193Z,100.00
2022-10-06T16:09:28.473Z,100.00
2022-10-06T16:14:36.401Z,100.00
2022-10-06T16:19:40.205Z,100.00
2022-10-06T16:24:46.180Z,100.00
2022-10-06T16:29:49.473Z,100.00
2022-10-06T16:34:52.818Z,100.00
2022-10-06T16:39:56.101Z,100.00
2022-10-06T16:44:59.705Z,100.00
2022-10-06T16:50:03.036Z,100.00
2022-10-06T16:55:06.325Z,100.00
2022-10-06T17:00:09.685Z,100.00
2022-10-06T17:05:13.328Z,100.00
2022-10-06T17:10:20.451Z,100.00
2022-10-06T17:15:24.380Z,100.00
2022-10-06T17:20:27.689Z,100.00
2022-10-06T17:25:31.120Z,100.00
2022-10-06T17:30:34.414Z,100.00
2022-10-06T17:35:40.346Z,100.00
2022-10-06T17:40:43.735Z,100.00
2022-10-06T17:45:47.959Z,100.00
2022-10-06T17:50:51.150Z,100.00
2022-10-06T17:55:55.350Z,100.00
2022-10-06T18:00:59.274Z,100.00
2022-10-06T18:06:03.774Z,100.00
2022-10-06T18:11:24.516Z,100.00
2022-10-06T18:16:27.791Z,100.00
2022-10-06T18:21:35.306Z,100.00
2022-10-06T18:26:41.995Z,100.00
2022-10-06T18:31:45.775Z,100.00
2022-10-06T18:36:49.093Z,100.00
2022-10-06T18:41:52.513Z,100.00
2022-10-06T18:47:13.519Z,100.00
2022-10-06T18:52:17.416Z,100.00
2022-10-06T18:57:25.127Z,100.00
2022-10-06T19:02:32.353Z,100.00
2022-10-06T19:07:35.931Z,100.00
2022-10-06T19:12:39.496Z,100.00
2022-10-06T19:17:46.004Z,100.00
2022-10-06T19:22:49.325Z,100.00
2022-10-06T19:27:52.498Z,100.00
2022-10-06T19:32:55.785Z,100.00
2022-10-06T19:37:59.145Z,100.00
2022-10-06T19:43:02.448Z,100.00
2022-10-06T19:48:05.737Z,100.00
2022-10-06T19:53:09.076Z,100.00
2022-10-06T19:58:12.583Z,100.00
2022-10-06T20:03:15.834Z,100.00
2022-10-06T20:08:20.474Z,100.00
2022-10-06T20:13:23.742Z,100.00
2022-10-06T20:18:27.056Z,100.00
2022-10-06T20:23:30.316Z,100.00
2022-10-06T20:28:33.722Z,100.00
2022-10-06T20:33:37.049Z,100.00
2022-10-06T20:38:56.875Z,100.00
2022-10-06T20:44:00.515Z,100.00
2022-10-06T20:49:04.200Z,100.00
2022-10-06T20:54:07.351Z,100.00
2022-10-06T20:59:10.568Z,100.00
2022-10-06T21:04:15.151Z,100.00
2022-10-06T21:09:18.911Z,100.00
2022-10-06T21:14:22.280Z,100.00
2022-10-06T21:19:26.897Z,100.00
2022-10-06T21:24:30.078Z,100.00
2022-10-06T21:29:33.204Z,100.00
2022-10-06T21:34:37.413Z,100.00
2022-10-06T21:39:41.561Z,100.00
2022-10-06T21:44:48.424Z,100.00
2022-10-06T21:49:51.763Z,100.00
2022-10-06T21:54:54.897Z,100.00
2022-10-06T21:59:58.145Z,100.00
2022-10-06T22:05:03.611Z,100.00
2022-10-06T22:10:06.846Z,100.00
2022-10-06T22:15:10.155Z,100.00
2022-10-06T22:20:13.863Z,100.00
2022-10-06T22:25:17.903Z,100.00
2022-10-06T22:30:31.108Z,100.00
2022-10-06T22:35:34.380Z,100.00
2022-10-06T22:40:37.852Z,100.00
2022-10-06T22:45:41.162Z,100.00
2022-10-06T22:50:44.614Z,100.00
2022-10-06T22:55:48.051Z,100.00
2022-10-06T23:00:54.871Z,100.00
2022-10-06T23:06:08.292Z,100.00
2022-10-06T23:11:11.601Z,100.00
2022-10-06T23:16:14.931Z,100.00
2022-10-06T23:21:21.707Z,100.00
2022-10-06T23:26:25.416Z,100.00
2022-10-06T23:31:29.491Z,100.00
2022-10-06T23:36:33.838Z,100.00
2022-10-06T23:41:37.287Z,100.00
2022-10-06T23:46:40.691Z,100.00
2022-10-06T23:51:44.139Z,100.00
2022-10-06T23:56:49.512Z,100.00
